Time;durP1;ratioP1;P1;durP2;ratioP2;P2;SDS_P1;SDS_P2;PMS_P1;PMS_P2;Temp;Humidity;BMP_temperature;BMP_pressure;BME280_temperature;BME280_humidity;BME280_pressure;Samples;Min_cycle;Max_cycle;Signal;HPM_P1;HPM_P2
2023/07/02 00:02:22;;;;;;;6.40;3.83;;;17.70;1.00;;;;;;5024731;28;20202;-76
2023/07/02 00:04:48;;;;;;;5.63;4.20;;;17.70;1.00;;;;;;5031193;28;20221;-76
2023/07/02 00:07:16;;;;;;;4.87;3.93;;;17.70;1.00;;;;;;5028550;28;20178;-77
2023/07/02 00:09:42;;;;;;;4.37;3.97;;;17.80;1.00;;;;;;5029540;28;20707;-76
2023/07/02 00:12:08;;;;;;;5.40;4.20;;;17.90;1.00;;;;;;5030484;28;20527;-76
2023/07/02 00:14:33;;;;;;;4.43;4.00;;;17.90;1.00;;;;;;5030899;28;20188;-77
2023/07/02 00:16:59;;;;;;;6.10;3.93;;;17.90;1.00;;;;;;5030788;28;20523;-75
2023/07/02 00:19:25;;;;;;;4.97;3.90;;;18.00;1.00;;;;;;5031209;28;20727;-75
2023/07/02 00:21:50;;;;;;;5.83;3.73;;;18.10;1.00;;;;;;5029466;28;20202;-77
2023/07/02 00:24:16;;;;;;;12.10;4.10;;;18.10;1.00;;;;;;5031630;28;20240;-76
2023/07/02 00:26:42;;;;;;;5.40;3.90;;;18.20;1.00;;;;;;5030445;28;20182;-76
2023/07/02 00:29:09;;;;;;;6.20;4.10;;;18.20;1.00;;;;;;5030741;28;20224;-75
2023/07/02 00:31:35;;;;;;;6.73;3.83;;;18.20;1.00;;;;;;5028430;28;20443;-76
2023/07/02 00:34:01;;;;;;;6.13;4.20;;;18.20;1.00;;;;;;5028620;28;20828;-76
2023/07/02 00:36:28;;;;;;;7.20;4.30;;;18.30;1.00;;;;;;5029481;28;20428;-76
2023/07/02 00:38:54;;;;;;;5.70;4.70;;;18.30;1.00;;;;;;5027948;28;20467;-76
2023/07/02 00:41:20;;;;;;;4.97;3.57;;;18.30;1.00;;;;;;5030367;28;20472;-76
2023/07/02 00:43:45;;;;;;;5.97;4.27;;;18.30;1.00;;;;;;5029693;28;20190;-75
2023/07/02 00:46:17;;;;;;;4.70;4.10;;;18.30;1.00;;;;;;5030693;28;20263;-77
2023/07/02 00:48:44;;;;;;;6.67;4.73;;;18.30;1.00;;;;;;5030404;28;20224;-77
2023/07/02 00:51:13;;;;;;;5.43;4.57;;;18.40;1.00;;;;;;5029134;28;20542;-76
2023/07/02 00:53:38;;;;;;;7.63;4.40;;;18.40;1.00;;;;;;5029831;28;20519;-76
2023/07/02 00:56:04;;;;;;;6.73;4.60;;;18.30;1.00;;;;;;5029934;28;20864;-76
2023/07/02 00:58:30;;;;;;;4.80;4.13;;;18.30;1.00;;;;;;5028578;28;20743;-76
2023/07/02 01:00:56;;;;;;;7.73;5.40;;;18.30;1.00;;;;;;5027776;28;20216;-78
2023/07/02 01:03:22;;;;;;;6.60;4.27;;;18.40;1.00;;;;;;5029835;28;20173;-76
2023/07/02 01:05:47;;;;;;;8.43;5.10;;;18.40;1.00;;;;;;5029035;28;20451;-78
2023/07/02 01:08:14;;;;;;;5.97;4.60;;;18.30;1.00;;;;;;5026268;28;20233;-76
2023/07/02 01:10:39;;;;;;;6.37;4.20;;;18.30;1.00;;;;;;5028108;28;20178;-76
2023/07/02 01:13:12;;;;;;;7.20;4.83;;;18.40;1.00;;;;;;5026752;28;20765;-77
2023/07/02 01:15:38;;;;;;;9.50;5.17;;;18.30;1.00;;;;;;5029596;28;20281;-76
2023/07/02 01:18:05;;;;;;;6.40;3.97;;;18.30;1.00;;;;;;5020440;28;20801;-77
2023/07/02 01:20:31;;;;;;;9.77;4.43;;;18.30;1.00;;;;;;5028615;28;20428;-76
2023/07/02 01:23:02;;;;;;;5.83;4.40;;;18.40;1.00;;;;;;5026643;28;20807;-76
2023/07/02 01:25:28;;;;;;;8.90;4.10;;;18.40;1.00;;;;;;5017453;28;20190;-76
2023/07/02 01:27:55;;;;;;;7.83;4.20;;;18.40;1.00;;;;;;5029445;28;20435;-76
2023/07/02 01:30:21;;;;;;;5.40;4.57;;;18.40;1.00;;;;;;5027427;28;20209;-79
2023/07/02 01:32:46;;;;;;;5.90;4.43;;;18.40;1.00;;;;;;5028915;28;20479;-76
2023/07/02 01:35:12;;;;;;;7.80;4.47;;;18.40;1.00;;;;;;5028224;28;20235;-77
2023/07/02 01:37:38;;;;;;;6.47;4.30;;;18.50;1.00;;;;;;5028127;28;20190;-77
2023/07/02 01:40:08;;;;;;;6.57;4.40;;;18.50;1.00;;;;;;5024672;28;20224;-78
2023/07/02 01:42:33;;;;;;;7.03;4.60;;;18.50;1.00;;;;;;5023152;28;20823;-77
2023/07/02 01:44:59;;;;;;;5.90;4.60;;;18.50;1.00;;;;;;5027224;28;20417;-76
2023/07/02 01:47:24;;;;;;;6.90;4.50;;;18.40;1.00;;;;;;5029425;28;20185;-76
2023/07/02 01:49:50;;;;;;;6.33;4.83;;;18.50;1.00;;;;;;5029130;28;20212;-77
2023/07/02 01:52:16;;;;;;;5.40;4.40;;;18.50;1.00;;;;;;5029041;28;20189;-77
2023/07/02 01:54:42;;;;;;;6.20;4.10;;;18.50;1.00;;;;;;5029333;28;20519;-77
2023/07/02 01:57:08;;;;;;;6.60;4.73;;;18.50;1.00;;;;;;5027871;28;20189;-77
2023/07/02 01:59:34;;;;;;;6.00;4.77;;;18.50;1.00;;;;;;5027117;28;20966;-76
2023/07/02 02:01:59;;;;;;;6.10;4.80;;;18.50;1.00;;;;;;5032500;28;20202;-77
2023/07/02 02:04:25;;;;;;;8.77;4.80;;;18.50;1.00;;;;;;5029453;28;20188;-76
2023/07/02 02:06:51;;;;;;;10.10;4.80;;;18.50;1.00;;;;;;5028135;28;20214;-79
2023/07/02 02:09:17;;;;;;;9.40;4.50;;;18.50;1.00;;;;;;5026424;28;20190;-78
2023/07/02 02:11:48;;;;;;;8.17;4.63;;;18.40;1.00;;;;;;5027530;28;20482;-77
2023/07/02 02:14:14;;;;;;;6.63;4.60;;;18.40;1.00;;;;;;5021230;28;20173;-77
2023/07/02 02:16:39;;;;;;;6.30;4.50;;;20.50;1.00;;;;;;5026692;28;21018;-76
2023/07/02 02:19:05;;;;;;;7.30;4.17;;;18.40;1.00;;;;;;5028052;28;20248;-78
2023/07/02 02:21:31;;;;;;;6.70;4.20;;;18.50;1.00;;;;;;5026854;28;20232;-76
2023/07/02 02:23:57;;;;;;;7.70;4.53;;;18.50;1.00;;;;;;5027201;28;20621;-76
2023/07/02 02:26:25;;;;;;;9.60;4.60;;;18.50;1.00;;;;;;5028462;28;20650;-76
2023/07/02 02:28:50;;;;;;;7.43;4.83;;;18.40;1.00;;;;;;5019442;28;20291;-77
2023/07/02 02:31:16;;;;;;;7.93;4.67;;;18.40;1.00;;;;;;5026409;28;20445;-77
2023/07/02 02:33:41;;;;;;;6.87;4.80;;;18.40;1.00;;;;;;5024021;28;20269;-77
2023/07/02 02:36:07;;;;;;;7.50;4.77;;;18.40;1.00;;;;;;5025859;28;20208;-78
2023/07/02 02:38:34;;;;;;;6.73;5.00;;;18.40;1.00;;;;;;5028141;28;20618;-76
2023/07/02 02:41:00;;;;;;;8.23;5.00;;;18.40;1.00;;;;;;5027766;28;20236;-77
2023/07/02 02:43:25;;;;;;;9.70;4.97;;;18.50;1.00;;;;;;5026694;28;20551;-77
2023/07/02 02:45:51;;;;;;;7.33;4.80;;;18.50;1.00;;;;;;5025943;28;20969;-76
2023/07/02 02:48:16;;;;;;;11.03;4.53;;;18.60;1.00;;;;;;5028072;28;20202;-76
2023/07/02 02:50:43;;;;;;;11.03;5.33;;;18.60;1.00;;;;;;5026807;28;20192;-76
2023/07/02 02:53:08;;;;;;;10.13;5.23;;;18.60;1.00;;;;;;5027167;28;20205;-77
2023/07/02 02:55:35;;;;;;;7.63;5.40;;;18.60;1.00;;;;;;5027822;28;20463;-76
2023/07/02 02:58:00;;;;;;;10.07;5.67;;;18.60;1.00;;;;;;5027452;28;20212;-76
2023/07/02 03:00:26;;;;;;;10.03;5.80;;;18.60;1.00;;;;;;5026852;28;20444;-77
2023/07/02 03:02:51;;;;;;;10.33;5.50;;;18.60;1.00;;;;;;5027762;28;20220;-77
2023/07/02 03:05:17;;;;;;;13.53;6.33;;;18.60;1.00;;;;;;5027342;28;20595;-78
2023/07/02 03:07:43;;;;;;;10.50;6.00;;;18.50;1.00;;;;;;5028126;28;20193;-76
2023/07/02 03:10:09;;;;;;;8.20;6.10;;;18.50;1.00;;;;;;5027973;28;20182;-75
2023/07/02 03:12:34;;;;;;;10.43;6.20;;;18.50;1.00;;;;;;5026764;28;20533;-77
2023/07/02 03:15:00;;;;;;;9.80;5.57;;;18.50;1.00;;;;;;5026333;28;20186;-78
2023/07/02 03:17:25;;;;;;;8.80;5.87;;;18.40;1.00;;;;;;5027364;28;20186;-76
2023/07/02 03:19:51;;;;;;;7.30;5.23;;;18.40;1.00;;;;;;5026675;28;20233;-79
2023/07/02 03:22:17;;;;;;;12.03;6.07;;;18.20;1.00;;;;;;5027236;28;20213;-77
2023/07/02 03:24:42;;;;;;;10.37;5.60;;;18.20;1.00;;;;;;5027687;28;20285;-78
2023/07/02 03:27:08;;;;;;;9.60;5.30;;;18.10;1.00;;;;;;5027238;28;20189;-76
2023/07/02 03:29:38;;;;;;;13.30;5.87;;;18.10;1.00;;;;;;5021510;28;20263;-76
2023/07/02 03:32:04;;;;;;;12.37;5.20;;;18.00;1.00;;;;;;5029804;28;20664;-76
2023/07/02 03:34:29;;;;;;;13.73;5.63;;;18.00;1.00;;;;;;5031646;28;20448;-76
2023/07/02 03:36:55;;;;;;;8.83;6.07;;;17.90;1.00;;;;;;5031031;28;20448;-76
2023/07/02 03:39:21;;;;;;;13.17;5.87;;;17.90;1.00;;;;;;5026917;28;20257;-77
2023/07/02 03:41:46;;;;;;;12.13;5.93;;;17.80;1.00;;;;;;5030993;28;20220;-77
2023/07/02 03:44:12;;;;;;;9.87;6.07;;;17.90;1.00;;;;;;5029422;28;20952;-76
2023/07/02 03:46:37;;;;;;;13.27;6.00;;;18.00;1.00;;;;;;5030847;28;20190;-77
2023/07/02 03:49:03;;;;;;;17.00;6.73;;;18.00;1.00;;;;;;5023154;28;20198;-76
2023/07/02 03:51:32;;;;;;;9.40;5.70;;;18.20;1.00;;;;;;5030601;28;20280;-78
2023/07/02 03:53:58;;;;;;;10.07;5.47;;;18.10;1.00;;;;;;5028886;28;20185;-77
2023/07/02 03:56:24;;;;;;;8.63;5.80;;;18.20;1.00;;;;;;5030632;28;20456;-78
2023/07/02 03:58:50;;;;;;;9.20;5.87;;;18.10;1.00;;;;;;5030985;28;20464;-76
2023/07/02 04:01:15;;;;;;;11.23;6.17;;;18.00;1.00;;;;;;5028686;28;20213;-77
2023/07/02 04:03:47;;;;;;;17.77;6.10;;;17.90;1.00;;;;;;5030356;28;20552;-78
2023/07/02 04:06:13;;;;;;;11.03;6.00;;;17.80;1.00;;;;;;5030569;28;20182;-76
2023/07/02 04:08:38;;;;;;;10.20;5.80;;;17.80;1.00;;;;;;5028793;28;20459;-77
2023/07/02 04:11:04;;;;;;;8.23;6.03;;;17.80;1.00;;;;;;5028312;28;20610;-76
2023/07/02 04:13:29;;;;;;;11.90;6.50;;;17.90;1.00;;;;;;5029950;28;20186;-77
2023/07/02 04:15:55;;;;;;;11.73;6.33;;;17.80;1.00;;;;;;5030089;28;20189;-82
2023/07/02 04:18:20;;;;;;;8.50;5.90;;;17.80;1.00;;;;;;5020301;28;20208;-76
2023/07/02 04:20:46;;;;;;;12.23;6.27;;;17.70;1.00;;;;;;5030693;28;20632;-76
2023/07/02 04:23:11;;;;;;;13.20;6.23;;;17.70;1.00;;;;;;5029697;28;20407;-77
2023/07/02 04:25:37;;;;;;;11.30;6.30;;;17.80;1.00;;;;;;5029867;28;20260;-78
2023/07/02 04:28:03;;;;;;;12.37;5.83;;;17.90;1.00;;;;;;5030014;28;20275;-76
2023/07/02 04:30:28;;;;;;;10.33;5.83;;;17.90;1.00;;;;;;5029514;28;20725;-76
2023/07/02 04:32:54;;;;;;;9.30;5.80;;;18.00;1.00;;;;;;5027902;28;20185;-77
2023/07/02 04:35:19;;;;;;;10.90;6.07;;;18.00;1.00;;;;;;5028764;28;20247;-76
2023/07/02 04:37:45;;;;;;;7.93;5.77;;;18.00;1.00;;;;;;5023205;28;20190;-77
2023/07/02 04:40:11;;;;;;;8.33;5.53;;;18.00;1.00;;;;;;5028013;28;20217;-76
2023/07/02 04:42:38;;;;;;;15.13;5.03;;;18.00;1.00;;;;;;5028190;28;20301;-76
2023/07/02 04:45:08;;;;;;;10.10;5.53;;;18.00;1.00;;;;;;5027379;28;20174;-76
2023/07/02 04:47:36;;;;;;;10.30;5.97;;;18.10;1.00;;;;;;5029227;28;20468;-76
2023/07/02 04:50:02;;;;;;;12.17;5.63;;;18.10;1.00;;;;;;5020780;28;20935;-76
2023/07/02 04:52:27;;;;;;;9.20;5.90;;;18.20;1.00;;;;;;5019791;28;20440;-79
2023/07/02 04:54:53;;;;;;;11.63;5.50;;;18.20;1.00;;;;;;5028439;28;20556;-76
2023/07/02 04:57:18;;;;;;;14.00;6.60;;;18.30;1.00;;;;;;5029681;28;20186;-76
2023/07/02 04:59:44;;;;;;;9.20;5.93;;;18.40;1.00;;;;;;5029998;28;20198;-79
2023/07/02 05:02:10;;;;;;;10.33;5.63;;;18.50;1.00;;;;;;5025432;28;20279;-76
2023/07/02 05:04:37;;;;;;;10.03;5.50;;;18.60;1.00;;;;;;5029511;28;20517;-77
2023/07/02 05:07:04;;;;;;;8.47;5.53;;;18.70;1.00;;;;;;5026733;28;20524;-77
2023/07/02 05:09:29;;;;;;;10.00;5.80;;;18.80;1.00;;;;;;5024901;28;20456;-78
2023/07/02 05:11:55;;;;;;;14.33;6.27;;;18.90;1.00;;;;;;5028519;28;20974;-75
2023/07/02 05:14:21;;;;;;;11.70;5.93;;;18.90;1.00;;;;;;5027393;28;20194;-76
2023/07/02 05:16:46;;;;;;;10.40;5.87;;;19.00;1.00;;;;;;5029430;28;20276;-77
2023/07/02 05:19:11;;;;;;;17.63;5.30;;;19.10;1.00;;;;;;5029112;28;20241;-77
2023/07/02 05:21:37;;;;;;;14.43;5.70;;;19.20;1.00;;;;;;5022848;28;20482;-80
2023/07/02 05:24:03;;;;;;;10.00;6.00;;;19.20;1.00;;;;;;5026661;28;20223;-77
2023/07/02 05:26:28;;;;;;;8.27;5.33;;;19.20;1.00;;;;;;5027267;28;20186;-77
2023/07/02 05:28:54;;;;;;;11.27;5.80;;;19.10;1.00;;;;;;5026795;28;20596;-77
2023/07/02 05:31:19;;;;;;;11.20;5.60;;;19.10;1.00;;;;;;5027376;28;20201;-76
2023/07/02 05:33:45;;;;;;;11.63;6.13;;;19.10;1.00;;;;;;5024899;28;20564;-76
2023/07/02 05:36:10;;;;;;;11.03;5.57;;;19.10;1.00;;;;;;5028302;28;20783;-79
2023/07/02 05:38:36;;;;;;;14.93;5.97;;;19.20;1.00;;;;;;5028610;28;20204;-78
2023/07/02 05:41:03;;;;;;;12.50;6.53;;;19.20;1.00;;;;;;5028733;28;20211;-77
2023/07/02 05:43:29;;;;;;;9.03;5.33;;;19.20;1.00;;;;;;5041486;28;20587;-76
2023/07/02 05:45:54;;;;;;;12.10;6.23;;;19.10;1.00;;;;;;5028062;28;20432;-77
2023/07/02 05:48:20;;;;;;;13.57;6.33;;;18.90;1.00;;;;;;5027330;28;21195;-76
2023/07/02 05:50:45;;;;;;;14.33;7.00;;;18.80;1.00;;;;;;5028566;28;20738;-78
2023/07/02 05:53:11;;;;;;;11.80;6.80;;;18.80;1.00;;;;;;5028076;28;20253;-76
2023/07/02 05:55:37;;;;;;;11.67;6.83;;;18.80;1.00;;;;;;5027135;28;20177;-76
2023/07/02 05:58:03;;;;;;;15.13;7.23;;;18.80;1.00;;;;;;5027950;28;20197;-76
2023/07/02 06:00:29;;;;;;;10.23;6.50;;;18.80;1.00;;;;;;5027347;28;20494;-77
2023/07/02 06:02:54;;;;;;;19.60;7.50;;;18.80;1.00;;;;;;5024071;28;20252;-77
2023/07/02 06:05:20;;;;;;;13.40;7.50;;;18.70;1.00;;;;;;5026694;28;20441;-75
2023/07/02 06:07:45;;;;;;;15.87;7.70;;;18.50;1.00;;;;;;5027978;28;20192;-76
2023/07/02 06:10:11;;;;;;;12.20;7.50;;;18.50;1.00;;;;;;5018691;28;20182;-76
2023/07/02 06:12:36;;;;;;;14.33;7.50;;;18.60;1.00;;;;;;5026861;28;20189;-78
2023/07/02 06:15:02;;;;;;;13.53;7.60;;;18.60;1.00;;;;;;5026591;28;20189;-82
2023/07/02 06:17:30;;;;;;;16.17;8.50;;;18.70;1.00;;;;;;5024036;28;20205;-76
2023/07/02 06:19:56;;;;;;;15.83;9.13;;;18.60;1.00;;;;;;5026989;28;20640;-77
2023/07/02 06:22:22;;;;;;;18.73;8.90;;;18.70;1.00;;;;;;5025224;28;20495;-77
2023/07/02 06:24:47;;;;;;;14.70;8.57;;;18.80;1.00;;;;;;5028421;28;20715;-77
2023/07/02 06:27:13;;;;;;;15.47;8.70;;;18.90;1.00;;;;;;5026046;28;20324;-76
2023/07/02 06:29:38;;;;;;;17.27;9.20;;;18.90;1.00;;;;;;5027194;28;20263;-78
2023/07/02 06:32:04;;;;;;;17.00;9.83;;;18.80;1.00;;;;;;5022901;28;20737;-77
2023/07/02 06:34:30;;;;;;;18.70;9.30;;;18.90;1.00;;;;;;5034275;28;20253;-78
2023/07/02 06:36:55;;;;;;;17.47;9.73;;;19.00;1.00;;;;;;5027300;28;20440;-78
2023/07/02 06:39:21;;;;;;;19.37;10.00;;;19.10;1.00;;;;;;5025060;28;20676;-76
2023/07/02 06:41:46;;;;;;;15.10;9.57;;;19.10;1.00;;;;;;5027333;28;20307;-77
2023/07/02 06:44:12;;;;;;;17.47;9.97;;;19.20;1.00;;;;;;5029186;28;20181;-76
2023/07/02 06:46:37;;;;;;;18.30;9.90;;;19.30;1.00;;;;;;5029554;28;20185;-77
2023/07/02 06:49:03;;;;;;;19.87;10.07;;;19.30;1.00;;;;;;5029875;28;20209;-78
2023/07/02 06:51:29;;;;;;;26.93;10.50;;;19.40;1.00;;;;;;5021203;28;20198;-79
2023/07/02 06:53:54;;;;;;;17.23;11.00;;;19.30;1.00;;;;;;5028247;28;20189;-78
2023/07/02 06:56:20;;;;;;;18.10;10.27;;;19.30;1.00;;;;;;5026412;28;20209;-77
2023/07/02 06:58:45;;;;;;;22.60;9.80;;;19.50;1.00;;;;;;5026425;28;20703;-77
2023/07/02 07:01:11;;;;;;;16.60;9.70;;;19.50;1.00;;;;;;5025200;28;20292;-76
2023/07/02 07:03:37;;;;;;;15.30;9.70;;;19.50;1.00;;;;;;5030116;28;20525;-78
2023/07/02 07:06:03;;;;;;;17.37;9.97;;;19.50;1.00;;;;;;5030547;28;20193;-74
2023/07/02 07:08:29;;;;;;;20.33;10.60;;;;;;;;;;5023106;28;20201;-75
2023/07/02 07:10:55;;;;;;;20.00;9.37;;;20.30;1.00;;;;;;5031688;28;20446;-76
2023/07/02 07:13:20;;;;;;;19.20;11.10;;;19.80;1.00;;;;;;5031009;28;20190;-76
2023/07/02 07:15:46;;;;;;;18.53;10.37;;;19.80;1.00;;;;;;5029345;28;20194;-77
2023/07/02 07:18:12;;;;;;;18.10;10.43;;;20.10;1.00;;;;;;5030490;28;20200;-79
2023/07/02 07:20:40;;;;;;;20.03;11.33;;;20.20;1.00;;;;;;5027184;28;20629;-76
2023/07/02 07:23:06;;;;;;;16.07;9.97;;;20.20;1.00;;;;;;5025755;28;20208;-76
2023/07/02 07:25:31;;;;;;;19.47;10.63;;;20.30;1.00;;;;;;5028012;28;20428;-77
2023/07/02 07:27:59;;;;;;;17.17;11.20;;;20.40;1.00;;;;;;5031965;28;20718;-77
2023/07/02 07:30:24;;;;;;;22.50;11.50;;;20.50;1.00;;;;;;5032813;28;20555;-77
2023/07/02 07:32:51;;;;;;;18.40;10.30;;;20.60;1.00;;;;;;5038199;28;20436;-79
2023/07/02 07:35:17;;;;;;;22.13;11.27;;;20.70;1.00;;;;;;5030276;28;20190;-78
2023/07/02 07:37:43;;;;;;;21.83;12.00;;;20.80;1.00;;;;;;5031702;28;20448;-77
2023/07/02 07:40:09;;;;;;;20.00;11.07;;;20.80;1.00;;;;;;5031396;28;20789;-77
2023/07/02 07:42:35;;;;;;;19.47;12.07;;;20.90;1.00;;;;;;5032038;28;20237;-77
2023/07/02 07:45:02;;;;;;;21.73;12.50;;;21.10;1.00;;;;;;5031851;28;20194;-76
2023/07/02 07:47:28;;;;;;;22.07;11.53;;;21.30;1.00;;;;;;5030948;28;20217;-76
2023/07/02 07:49:54;;;;;;;19.40;12.07;;;21.50;1.00;;;;;;5032287;28;20463;-77
2023/07/02 07:52:20;;;;;;;21.40;11.30;;;21.70;1.00;;;;;;5027824;28;20701;-77
2023/07/02 07:54:45;;;;;;;20.80;11.63;;;21.70;1.00;;;;;;5031814;28;20440;-77
2023/07/02 07:57:11;;;;;;;26.80;12.33;;;21.70;1.00;;;;;;5028758;28;20190;-77
2023/07/02 07:59:36;;;;;;;26.03;12.40;;;21.90;1.00;;;;;;5031556;28;20611;-76
2023/07/02 08:02:02;;;;;;;21.97;12.00;;;22.00;1.00;;;;;;5028801;28;20428;-76
2023/07/02 08:04:28;;;;;;;20.37;11.80;;;21.90;1.00;;;;;;5030158;28;20274;-77
2023/07/02 08:06:54;;;;;;;19.97;11.70;;;21.90;1.00;;;;;;5030886;28;20205;-76
2023/07/02 08:09:20;;;;;;;24.80;12.80;;;22.00;1.00;;;;;;5031660;28;20204;-76
2023/07/02 08:11:46;;;;;;;26.63;12.00;;;22.20;1.00;;;;;;5030712;28;20440;-76
2023/07/02 08:14:12;;;;;;;21.43;11.90;;;22.50;1.00;;;;;;5029576;28;20188;-76
2023/07/02 08:16:38;;;;;;;22.43;12.90;;;22.50;1.00;;;;;;5028289;28;20435;-76
2023/07/02 08:19:03;;;;;;;23.80;14.40;;;22.70;1.00;;;;;;5031581;28;20452;-76
2023/07/02 08:21:29;;;;;;;24.07;13.90;;;22.70;1.00;;;;;;5030552;28;20209;-77
2023/07/02 08:23:54;;;;;;;27.90;14.63;;;22.80;1.00;;;;;;5031854;28;20182;-76
2023/07/02 08:26:20;;;;;;;28.40;14.80;;;23.00;1.00;;;;;;5031485;28;20651;-76
2023/07/02 08:28:45;;;;;;;24.43;12.87;;;23.10;1.00;;;;;;5031363;28;20201;-77
2023/07/02 08:31:11;;;;;;;25.37;14.27;;;22.90;1.00;;;;;;5030743;28;20189;-75
2023/07/02 08:33:36;;;;;;;24.40;13.50;;;23.00;1.00;;;;;;5028705;28;20197;-76
2023/07/02 08:36:02;;;;;;;26.63;13.80;;;23.20;1.00;;;;;;5031825;28;20190;-76
2023/07/02 08:38:28;;;;;;;25.67;14.80;;;23.40;1.00;;;;;;5030977;28;20209;-75
2023/07/02 08:40:53;;;;;;;25.43;14.50;;;23.70;1.00;;;;;;5031513;28;20185;-76
2023/07/02 08:43:19;;;;;;;33.30;15.00;;;24.10;1.00;;;;;;5030718;28;20185;-76
2023/07/02 08:45:45;;;;;;;26.80;15.07;;;23.90;1.00;;;;;;5031034;28;20224;-76
2023/07/02 08:48:11;;;;;;;25.83;14.97;;;23.60;1.00;;;;;;5029396;28;20683;-76
2023/07/02 08:50:37;;;;;;;29.60;14.53;;;23.70;1.00;;;;;;5023136;28;20515;-75
2023/07/02 08:53:02;;;;;;;29.53;14.60;;;23.50;1.00;;;;;;5031154;28;20187;-76
2023/07/02 08:55:29;;;;;;;24.97;15.10;;;23.60;1.00;;;;;;5030805;28;20439;-74
2023/07/02 08:57:59;;;;;;;27.17;14.40;;;24.40;1.00;;;;;;5030937;28;20189;-76
2023/07/02 09:00:26;;;;;;;26.70;14.47;;;24.50;1.00;;;;;;5029391;28;20443;-76
2023/07/02 09:02:51;;;;;;;23.13;14.77;;;24.40;1.00;;;;;;5030604;28;20554;-76
2023/07/02 09:05:17;;;;;;;25.27;15.53;;;24.20;1.00;;;;;;5030544;28;20883;-76
2023/07/02 09:07:47;;;;;;;26.90;14.40;;;24.50;1.00;;;;;;5030751;28;20643;-76
2023/07/02 09:10:28;;;;;;;26.50;14.47;;;24.50;1.00;;;;;;5030810;28;20181;-77
2023/07/02 09:13:04;;;;;;;23.60;14.43;;;24.80;1.00;;;;;;5028172;28;20443;-76
2023/07/02 09:15:41;;;;;;;24.97;15.13;;;25.80;1.00;;;;;;5025773;28;20440;-76
2023/07/02 09:18:16;;;;;;;25.67;15.20;;;26.50;1.00;;;;;;5029357;28;20466;-76
2023/07/02 09:20:41;;;;;;;24.70;14.77;;;26.30;1.00;;;;;;5023249;28;20524;-78
2023/07/02 09:23:07;;;;;;;23.80;14.50;;;26.00;1.00;;;;;;5026213;28;20537;-77
2023/07/02 09:25:40;;;;;;;26.23;14.40;;;26.00;1.00;;;;;;5026015;28;20199;-79
2023/07/02 09:28:18;;;;;;;26.30;14.67;;;26.30;1.00;;;;;;5023300;28;20300;-76
2023/07/02 09:30:57;;;;;;;21.03;14.07;;;26.40;1.00;;;;;;5023570;28;20461;-78
2023/07/02 09:33:27;;;;;;;26.80;15.03;;;26.00;1.00;;;;;;5025173;28;20444;-76
2023/07/02 09:35:52;;;;;;;25.60;14.80;;;25.40;1.00;;;;;;5027170;28;20439;-76
2023/07/02 09:38:19;;;;;;;21.83;13.93;;;25.90;1.00;;;;;;5027489;28;20467;-77
2023/07/02 09:40:48;;;;;;;29.37;15.80;;;26.80;1.00;;;;;;5026160;28;20181;-77
2023/07/02 09:43:15;;;;;;;24.50;14.93;;;26.80;1.00;;;;;;5023407;28;20467;-76
2023/07/02 09:45:44;;;;;;;25.77;14.97;;;26.50;1.00;;;;;;5023246;28;20530;-78
2023/07/02 09:48:17;;;;;;;23.40;15.13;;;26.20;1.00;;;;;;5025090;28;20467;-76
2023/07/02 09:50:48;;;;;;;24.00;15.33;;;27.10;1.00;;;;;;5022981;28;20515;-76
2023/07/02 09:53:14;;;;;;;23.90;14.17;;;27.50;1.00;;;;;;5024567;28;20238;-76
2023/07/02 09:55:42;;;;;;;23.50;15.53;;;26.50;1.00;;;;;;5026265;28;20432;-76
2023/07/02 09:58:08;;;;;;;247.63;92.07;;;25.80;1.00;;;;;;5025780;28;20208;-76
2023/07/02 10:00:34;;;;;;;145.73;55.60;;;24.90;1.00;;;;;;5025072;28;20439;-76
2023/07/02 10:03:00;;;;;;;430.30;161.70;;;26.20;1.00;;;;;;5024662;28;20216;-76
2023/07/02 10:05:27;;;;;;;99.63;40.37;;;27.40;1.00;;;;;;5026092;28;20436;-76
2023/07/02 10:07:53;;;;;;;248.63;91.67;;;27.70;1.00;;;;;;5026370;28;20197;-76
2023/07/02 10:10:27;;;;;;;128.67;48.83;;;27.70;1.00;;;;;;5021587;28;20429;-76
2023/07/02 10:12:53;;;;;;;259.97;91.10;;;28.70;1.00;;;;;;5029343;28;20599;-77
2023/07/02 10:15:29;;;;;;;30.70;18.17;;;28.30;1.00;;;;;;5026846;28;20264;-77
2023/07/02 10:17:56;;;;;;;100.00;38.10;;;27.10;1.00;;;;;;5030546;28;20192;-76
2023/07/02 10:20:33;;;;;;;37.90;20.23;;;26.80;1.00;;;;;;5028151;28;20548;-77
2023/07/02 10:23:01;;;;;;;79.13;32.57;;;26.20;1.00;;;;;;5025323;28;20513;-76
2023/07/02 10:25:29;;;;;;;68.30;30.57;;;26.70;1.00;;;;;;5028113;28;20520;-78
2023/07/02 10:27:55;;;;;;;53.77;24.00;;;27.10;1.00;;;;;;5030130;28;20436;-78
2023/07/02 10:30:35;;;;;;;30.23;15.13;;;27.10;1.00;;;;;;5024864;28;20455;-77
2023/07/02 10:33:11;;;;;;;29.40;15.63;;;27.10;1.00;;;;;;5026138;28;20215;-76
2023/07/02 10:35:38;;;;;;;28.33;17.80;;;27.00;1.00;;;;;;5029428;28;20442;-77
2023/07/02 10:38:06;;;;;;;32.10;18.80;;;27.30;1.00;;;;;;5030394;28;20497;-77
2023/07/02 10:40:33;;;;;;;27.90;16.30;;;27.80;1.00;;;;;;5032082;28;20465;-78
2023/07/02 10:42:58;;;;;;;31.33;17.20;;;29.40;1.00;;;;;;5032282;28;20255;-77
2023/07/02 10:45:32;;;;;;;25.07;16.07;;;31.10;1.00;;;;;;5031760;28;20261;-77
2023/07/02 10:47:58;;;;;;;37.50;17.87;;;29.50;1.00;;;;;;5030793;28;20188;-78
2023/07/02 10:50:23;;;;;;;24.20;15.47;;;29.50;1.00;;;;;;5030293;28;20310;-77
2023/07/02 10:52:52;;;;;;;25.67;16.05;;;30.30;1.00;;;;;;5036868;28;20188;-77
2023/07/02 10:55:22;;;;;;;24.83;16.58;;;31.30;1.00;;;;;;5032044;28;20196;-77
2023/07/02 10:57:50;;;;;;;23.67;16.67;;;31.40;1.00;;;;;;5022790;28;20192;-77
2023/07/02 11:00:17;;;;;;;26.88;16.65;;;31.50;1.00;;;;;;5028288;28;20177;-77
2023/07/02 11:02:42;;;;;;;24.10;17.15;;;31.60;1.00;;;;;;5029602;28;20270;-78
2023/07/02 11:05:12;;;;;;;26.40;16.20;;;30.20;1.00;;;;;;5031333;28;20694;-77
2023/07/02 11:07:44;;;;;;;26.00;15.95;;;30.30;1.00;;;;;;5028166;28;20288;-77
2023/07/02 11:10:16;;;;;;;23.95;16.15;;;31.00;1.00;;;;;;5030081;28;20236;-77
2023/07/02 11:12:42;;;;;;;27.90;15.48;;;30.80;1.00;;;;;;5026651;28;20557;-77
2023/07/02 11:15:09;;;;;;;25.48;15.27;;;30.10;1.00;;;;;;5027145;28;20204;-77
2023/07/02 11:17:34;;;;;;;28.10;16.48;;;29.90;1.00;;;;;;5027053;28;20192;-76
2023/07/02 11:20:00;;;;;;;27.88;16.77;;;29.30;1.00;;;;;;5029719;28;20197;-77
2023/07/02 11:22:36;;;;;;;27.43;16.27;;;28.30;1.00;;;;;;5030219;28;20228;-77
2023/07/02 11:25:21;;;;;;;25.73;16.27;;;27.50;1.00;;;;;;5029596;28;20189;-77
2023/07/02 11:27:46;;;;;;;25.23;16.57;;;26.90;1.00;;;;;;5033570;28;20205;-76
2023/07/02 11:30:12;;;;;;;27.33;16.77;;;26.90;1.00;;;;;;5028491;28;20236;-77
2023/07/02 11:32:52;;;;;;;28.43;17.50;;;26.90;1.00;;;;;;5028441;28;20739;-76
2023/07/02 11:35:18;;;;;;;28.77;16.00;;;26.90;1.00;;;;;;5026840;28;20435;-76
2023/07/02 11:37:44;;;;;;;29.50;16.93;;;27.70;1.00;;;;;;5028764;28;20459;-77
2023/07/02 11:40:10;;;;;;;26.30;16.23;;;27.70;1.00;;;;;;5028524;28;20178;-77
2023/07/02 11:42:36;;;;;;;25.27;16.73;;;29.10;1.00;;;;;;5024457;28;20307;-76
2023/07/02 11:45:02;;;;;;;26.02;16.75;;;30.70;1.00;;;;;;5025858;28;20620;-77
2023/07/02 11:47:27;;;;;;;23.57;15.83;;;30.90;1.00;;;;;;5029529;28;20740;-77
2023/07/02 11:49:54;;;;;;;24.43;15.67;;;30.50;1.00;;;;;;5025755;28;20201;-77
2023/07/02 11:52:20;;;;;;;27.05;16.75;;;30.80;1.00;;;;;;5023644;28;20185;-77
2023/07/02 11:54:46;;;;;;;23.88;15.25;;;31.60;1.00;;;;;;5023456;28;20193;-77
2023/07/02 11:57:12;;;;;;;26.20;16.50;;;32.40;1.00;;;;;;5025582;28;20181;-77
2023/07/02 11:59:38;;;;;;;23.83;15.52;;;32.70;1.00;;;;;;5032002;28;20211;-77
2023/07/02 12:02:04;;;;;;;23.17;15.50;;;33.30;1.00;;;;;;5030852;28;20224;-78
2023/07/02 12:04:29;;;;;;;25.65;17.30;;;34.40;1.00;;;;;;5024260;28;20186;-78
2023/07/02 12:06:55;;;;;;;25.13;15.77;;;34.20;1.00;;;;;;5019819;28;20194;-77
2023/07/02 12:09:20;;;;;;;23.45;14.75;;;32.80;1.00;;;;;;5027753;28;20201;-77
2023/07/02 12:11:46;;;;;;;25.30;16.00;;;32.00;1.00;;;;;;5029067;28;20177;-78
2023/07/02 12:14:12;;;;;;;24.67;14.75;;;31.50;1.00;;;;;;5026455;28;20257;-77
2023/07/02 12:16:37;;;;;;;24.38;16.92;;;30.80;1.00;;;;;;5028612;28;20188;-77
2023/07/02 12:19:04;;;;;;;28.70;15.77;;;31.70;1.00;;;;;;5018097;28;20217;-77
2023/07/02 12:21:29;;;;;;;22.27;15.70;;;33.50;1.00;;;;;;5031734;28;20223;-77
2023/07/02 12:23:55;;;;;;;24.85;15.65;;;34.10;1.00;;;;;;5023956;28;20556;-77
2023/07/02 12:26:20;;;;;;;23.70;15.50;;;34.70;1.00;;;;;;5030944;28;20173;-78
2023/07/02 12:28:46;;;;;;;22.27;14.32;;;34.90;1.00;;;;;;5031192;28;20212;-77
2023/07/02 12:31:12;;;;;;;19.40;14.73;;;35.60;1.00;;;;;;5030613;28;20165;-77
2023/07/02 12:33:38;;;;;;;23.08;14.90;;;35.80;1.00;;;;;;5028847;28;20273;-75
2023/07/02 12:36:04;;;;;;;23.50;15.55;;;35.10;1.00;;;;;;5032082;28;20260;-77
2023/07/02 12:38:29;;;;;;;23.73;14.32;;;35.20;1.00;;;;;;5031067;28;20233;-77
2023/07/02 12:40:55;;;;;;;19.85;14.43;;;35.10;1.00;;;;;;5031781;28;20181;-77
2023/07/02 12:43:21;;;;;;;24.67;15.20;;;35.40;1.00;;;;;;5028893;28;20201;-77